sensor_id;sensor_type;location;lat;lon;timestamp;temperature;humidity
77582;DHT22;66726;52.388;9.986;2023-07-29T00:00:22;19.80;99.90
77582;DHT22;66726;52.388;9.986;2023-07-29T00:02:56;19.80;99.90
77582;DHT22;66726;52.388;9.986;2023-07-29T00:05:28;19.80;99.90
77582;DHT22;66726;52.388;9.986;2023-07-29T00:08:00;19.80;99.90
77582;DHT22;66726;52.388;9.986;2023-07-29T00:10:34;19.80;99.90
77582;DHT22;66726;52.388;9.986;2023-07-29T00:13:07;19.80;99.90
77582;DHT22;66726;52.388;9.986;2023-07-29T00:15:40;19.80;99.90
77582;DHT22;66726;52.388;9.986;2023-07-29T00:18:12;19.80;99.90
77582;DHT22;66726;52.388;9.986;2023-07-29T00:20:44;19.80;99.90
77582;DHT22;66726;52.388;9.986;2023-07-29T00:23:16;19.80;99.90
77582;DHT22;66726;52.388;9.986;2023-07-29T00:25:50;19.80;99.90
77582;DHT22;66726;52.388;9.986;2023-07-29T00:28:21;19.80;99.90
77582;DHT22;66726;52.388;9.986;2023-07-29T00:30:55;19.70;99.90
77582;DHT22;66726;52.388;9.986;2023-07-29T00:33:26;19.70;99.90
77582;DHT22;66726;52.388;9.986;2023-07-29T00:35:58;19.70;99.90
77582;DHT22;66726;52.388;9.986;2023-07-29T00:38:31;19.80;99.90
77582;DHT22;66726;52.388;9.986;2023-07-29T00:41:04;19.80;99.90
77582;DHT22;66726;52.388;9.986;2023-07-29T00:43:36;19.80;99.90
77582;DHT22;66726;52.388;9.986;2023-07-29T00:46:10;19.70;99.90
77582;DHT22;66726;52.388;9.986;2023-07-29T00:48:42;19.70;99.90
77582;DHT22;66726;52.388;9.986;2023-07-29T00:51:14;19.70;99.90
77582;DHT22;66726;52.388;9.986;2023-07-29T00:53:46;19.70;99.90
77582;DHT22;66726;52.388;9.986;2023-07-29T00:56:18;19.70;99.90
77582;DHT22;66726;52.388;9.986;2023-07-29T00:58:49;19.60;99.90
77582;DHT22;66726;52.388;9.986;2023-07-29T01:01:28;19.70;99.90
77582;DHT22;66726;52.388;9.986;2023-07-29T01:04:01;19.60;99.90
77582;DHT22;66726;52.388;9.986;2023-07-29T01:06:41;19.50;99.90
77582;DHT22;66726;52.388;9.986;2023-07-29T01:09:23;19.50;99.90
77582;DHT22;66726;52.388;9.986;2023-07-29T01:12:06;19.40;99.90
77582;DHT22;66726;52.388;9.986;2023-07-29T01:14:50;19.50;99.90
77582;DHT22;66726;52.388;9.986;2023-07-29T01:17:32;19.50;99.90
77582;DHT22;66726;52.388;9.986;2023-07-29T01:20:11;19.50;99.90
77582;DHT22;66726;52.388;9.986;2023-07-29T01:22:46;19.50;99.90
77582;DHT22;66726;52.388;9.986;2023-07-29T01:25:19;19.40;99.90
77582;DHT22;66726;52.388;9.986;2023-07-29T01:27:52;19.40;99.90
77582;DHT22;66726;52.388;9.986;2023-07-29T01:30:29;19.40;99.90
77582;DHT22;66726;52.388;9.986;2023-07-29T01:33:10;19.40;99.90
77582;DHT22;66726;52.388;9.986;2023-07-29T01:35:50;19.40;99.90
77582;DHT22;66726;52.388;9.986;2023-07-29T01:38:30;19.30;99.90
77582;DHT22;66726;52.388;9.986;2023-07-29T01:41:09;19.20;99.90
77582;DHT22;66726;52.388;9.986;2023-07-29T01:43:42;19.30;99.90
77582;DHT22;66726;52.388;9.986;2023-07-29T01:46:15;19.30;99.90
77582;DHT22;66726;52.388;9.986;2023-07-29T01:48:47;19.20;99.90
77582;DHT22;66726;52.388;9.986;2023-07-29T01:51:18;19.30;99.90
77582;DHT22;66726;52.388;9.986;2023-07-29T01:53:51;19.30;99.90
77582;DHT22;66726;52.388;9.986;2023-07-29T01:56:25;19.20;99.90
77582;DHT22;66726;52.388;9.986;2023-07-29T01:58:57;19.20;99.90
77582;DHT22;66726;52.388;9.986;2023-07-29T02:01:29;19.20;99.90
77582;DHT22;66726;52.388;9.986;2023-07-29T02:04:01;19.30;99.90
77582;DHT22;66726;52.388;9.986;2023-07-29T02:06:32;19.20;99.90
77582;DHT22;66726;52.388;9.986;2023-07-29T02:09:05;19.20;99.90
77582;DHT22;66726;52.388;9.986;2023-07-29T02:11:38;19.20;99.90
77582;DHT22;66726;52.388;9.986;2023-07-29T02:14:10;19.30;99.90
77582;DHT22;66726;52.388;9.986;2023-07-29T02:16:42;19.30;99.90
77582;DHT22;66726;52.388;9.986;2023-07-29T02:19:14;19.20;99.90
77582;DHT22;66726;52.388;9.986;2023-07-29T02:21:46;19.20;99.90
77582;DHT22;66726;52.388;9.986;2023-07-29T02:24:18;19.20;99.90
77582;DHT22;66726;52.388;9.986;2023-07-29T02:26:51;19.30;99.90
77582;DHT22;66726;52.388;9.986;2023-07-29T02:29:23;19.20;99.90
77582;DHT22;66726;52.388;9.986;2023-07-29T02:31:55;19.20;99.90
77582;DHT22;66726;52.388;9.986;2023-07-29T02:34:27;19.20;99.90
77582;DHT22;66726;52.388;9.986;2023-07-29T02:36:58;19.20;99.90
77582;DHT22;66726;52.388;9.986;2023-07-29T02:39:31;19.20;99.90
77582;DHT22;66726;52.388;9.986;2023-07-29T02:42:05;19.20;99.90
77582;DHT22;66726;52.388;9.986;2023-07-29T02:44:37;19.20;99.90
77582;DHT22;66726;52.388;9.986;2023-07-29T02:47:09;19.20;99.90
77582;DHT22;66726;52.388;9.986;2023-07-29T02:49:41;19.20;99.90
77582;DHT22;66726;52.388;9.986;2023-07-29T02:52:13;19.20;99.90
77582;DHT22;66726;52.388;9.986;2023-07-29T02:54:45;19.20;99.90
77582;DHT22;66726;52.388;9.986;2023-07-29T02:57:18;19.20;99.90
77582;DHT22;66726;52.388;9.986;2023-07-29T02:59:50;19.20;99.90
77582;DHT22;66726;52.388;9.986;2023-07-29T03:02:22;19.20;99.90
77582;DHT22;66726;52.388;9.986;2023-07-29T03:04:54;19.10;99.90
77582;DHT22;66726;52.388;9.986;2023-07-29T03:07:26;19.10;99.90
77582;DHT22;66726;52.388;9.986;2023-07-29T03:09:58;19.10;99.90
77582;DHT22;66726;52.388;9.986;2023-07-29T03:12:31;19.10;99.90
77582;DHT22;66726;52.388;9.986;2023-07-29T03:15:03;19.10;99.90
77582;DHT22;66726;52.388;9.986;2023-07-29T03:17:36;19.10;99.90
77582;DHT22;66726;52.388;9.986;2023-07-29T03:20:09;19.10;99.90
77582;DHT22;66726;52.388;9.986;2023-07-29T03:22:41;19.10;99.90
77582;DHT22;66726;52.388;9.986;2023-07-29T03:25:13;19.00;99.90
77582;DHT22;66726;52.388;9.986;2023-07-29T03:27:46;19.10;99.90
77582;DHT22;66726;52.388;9.986;2023-07-29T03:30:21;19.10;99.90
77582;DHT22;66726;52.388;9.986;2023-07-29T03:32:54;19.10;99.90
77582;DHT22;66726;52.388;9.986;2023-07-29T03:35:26;19.10;99.90
77582;DHT22;66726;52.388;9.986;2023-07-29T03:37:58;19.00;99.90
77582;DHT22;66726;52.388;9.986;2023-07-29T03:40:30;19.10;99.90
77582;DHT22;66726;52.388;9.986;2023-07-29T03:43:03;19.00;99.90
77582;DHT22;66726;52.388;9.986;2023-07-29T03:45:36;19.00;99.90
77582;DHT22;66726;52.388;9.986;2023-07-29T03:48:08;19.00;99.90
77582;DHT22;66726;52.388;9.986;2023-07-29T03:50:40;19.00;99.90
77582;DHT22;66726;52.388;9.986;2023-07-29T03:53:12;19.00;99.90
77582;DHT22;66726;52.388;9.986;2023-07-29T03:55:45;19.00;99.90
77582;DHT22;66726;52.388;9.986;2023-07-29T03:58:22;18.90;99.90
77582;DHT22;66726;52.388;9.986;2023-07-29T04:00:54;18.90;99.90
77582;DHT22;66726;52.388;9.986;2023-07-29T04:03:26;18.90;99.90
77582;DHT22;66726;52.388;9.986;2023-07-29T04:06:02;18.90;99.90
77582;DHT22;66726;52.388;9.986;2023-07-29T04:08:34;18.90;99.90
77582;DHT22;66726;52.388;9.986;2023-07-29T04:11:06;18.90;99.90
77582;DHT22;66726;52.388;9.986;2023-07-29T04:13:39;19.00;99.90
77582;DHT22;66726;52.388;9.986;2023-07-29T04:16:11;19.00;99.90
77582;DHT22;66726;52.388;9.986;2023-07-29T04:18:43;19.00;99.90
77582;DHT22;66726;52.388;9.986;2023-07-29T04:21:15;19.00;99.90
77582;DHT22;66726;52.388;9.986;2023-07-29T04:23:47;19.00;99.90
77582;DHT22;66726;52.388;9.986;2023-07-29T04:26:19;19.00;99.90
77582;DHT22;66726;52.388;9.986;2023-07-29T04:28:52;19.00;99.90
77582;DHT22;66726;52.388;9.986;2023-07-29T04:31:24;19.00;99.90
77582;DHT22;66726;52.388;9.986;2023-07-29T04:33:55;19.00;99.90
77582;DHT22;66726;52.388;9.986;2023-07-29T04:36:28;18.90;99.90
77582;DHT22;66726;52.388;9.986;2023-07-29T04:39:00;18.90;99.90
77582;DHT22;66726;52.388;9.986;2023-07-29T04:41:32;18.90;99.90
77582;DHT22;66726;52.388;9.986;2023-07-29T04:44:05;19.00;99.90
77582;DHT22;66726;52.388;9.986;2023-07-29T04:46:37;18.90;99.90
77582;DHT22;66726;52.388;9.986;2023-07-29T04:49:09;19.00;99.90
77582;DHT22;66726;52.388;9.986;2023-07-29T04:51:41;19.00;99.90
77582;DHT22;66726;52.388;9.986;2023-07-29T04:54:13;18.90;99.90
77582;DHT22;66726;52.388;9.986;2023-07-29T04:56:45;19.00;99.90
77582;DHT22;66726;52.388;9.986;2023-07-29T04:59:18;19.00;99.90
77582;DHT22;66726;52.388;9.986;2023-07-29T05:01:50;19.00;99.90
77582;DHT22;66726;52.388;9.986;2023-07-29T05:04:22;19.00;99.90
77582;DHT22;66726;52.388;9.986;2023-07-29T05:06:54;18.90;99.90
77582;DHT22;66726;52.388;9.986;2023-07-29T05:09:26;18.90;99.90
77582;DHT22;66726;52.388;9.986;2023-07-29T05:11:58;18.80;99.90
77582;DHT22;66726;52.388;9.986;2023-07-29T05:14:31;18.80;99.90
77582;DHT22;66726;52.388;9.986;2023-07-29T05:17:03;18.90;99.90
77582;DHT22;66726;52.388;9.986;2023-07-29T05:19:36;18.80;99.90
77582;DHT22;66726;52.388;9.986;2023-07-29T05:22:09;18.80;99.90
77582;DHT22;66726;52.388;9.986;2023-07-29T05:24:41;18.80;99.90
77582;DHT22;66726;52.388;9.986;2023-07-29T05:27:14;18.80;99.90
77582;DHT22;66726;52.388;9.986;2023-07-29T05:29:47;18.80;99.90
77582;DHT22;66726;52.388;9.986;2023-07-29T05:32:19;18.80;99.90
77582;DHT22;66726;52.388;9.986;2023-07-29T05:34:51;18.80;99.90
77582;DHT22;66726;52.388;9.986;2023-07-29T05:37:23;18.80;99.90
77582;DHT22;66726;52.388;9.986;2023-07-29T05:39:55;18.80;99.90
77582;DHT22;66726;52.388;9.986;2023-07-29T05:42:28;18.90;99.90
77582;DHT22;66726;52.388;9.986;2023-07-29T05:45:01;18.90;99.90
77582;DHT22;66726;52.388;9.986;2023-07-29T05:47:33;18.90;99.90
77582;DHT22;66726;52.388;9.986;2023-07-29T05:50:06;18.90;99.90
77582;DHT22;66726;52.388;9.986;2023-07-29T05:52:39;18.90;99.90
77582;DHT22;66726;52.388;9.986;2023-07-29T05:55:11;19.00;99.90
77582;DHT22;66726;52.388;9.986;2023-07-29T05:57:43;18.90;99.90
77582;DHT22;66726;52.388;9.986;2023-07-29T06:00:17;18.90;99.90
77582;DHT22;66726;52.388;9.986;2023-07-29T06:02:49;18.80;99.90
77582;DHT22;66726;52.388;9.986;2023-07-29T06:05:21;18.90;99.90
77582;DHT22;66726;52.388;9.986;2023-07-29T06:07:53;18.90;99.90
77582;DHT22;66726;52.388;9.986;2023-07-29T06:10:25;18.90;99.90
77582;DHT22;66726;52.388;9.986;2023-07-29T06:12:57;18.90;99.90
77582;DHT22;66726;52.388;9.986;2023-07-29T06:15:30;19.00;99.90
77582;DHT22;66726;52.388;9.986;2023-07-29T06:18:02;19.00;99.90
77582;DHT22;66726;52.388;9.986;2023-07-29T06:20:34;19.00;99.90
77582;DHT22;66726;52.388;9.986;2023-07-29T06:23:07;19.10;99.90
77582;DHT22;66726;52.388;9.986;2023-07-29T06:25:39;19.00;99.90
77582;DHT22;66726;52.388;9.986;2023-07-29T06:28:11;19.10;99.90
77582;DHT22;66726;52.388;9.986;2023-07-29T06:30:45;19.10;99.90
77582;DHT22;66726;52.388;9.986;2023-07-29T06:33:17;19.10;99.90
77582;DHT22;66726;52.388;9.986;2023-07-29T06:35:49;19.10;99.90
77582;DHT22;66726;52.388;9.986;2023-07-29T06:38:21;19.10;99.90
77582;DHT22;66726;52.388;9.986;2023-07-29T06:40:52;19.10;99.90
77582;DHT22;66726;52.388;9.986;2023-07-29T06:43:24;19.10;99.90
77582;DHT22;66726;52.388;9.986;2023-07-29T06:45:57;19.10;99.90
77582;DHT22;66726;52.388;9.986;2023-07-29T06:48:29;19.10;99.90
77582;DHT22;66726;52.388;9.986;2023-07-29T06:51:01;19.10;99.90
77582;DHT22;66726;52.388;9.986;2023-07-29T06:53:33;19.10;99.90
77582;DHT22;66726;52.388;9.986;2023-07-29T06:56:05;19.20;99.90
77582;DHT22;66726;52.388;9.986;2023-07-29T06:58:37;19.20;99.90
77582;DHT22;66726;52.388;9.986;2023-07-29T07:01:10;19.20;99.90
77582;DHT22;66726;52.388;9.986;2023-07-29T07:03:42;19.20;99.90
77582;DHT22;66726;52.388;9.986;2023-07-29T07:06:14;19.30;99.90
77582;DHT22;66726;52.388;9.986;2023-07-29T07:08:46;19.40;99.90
77582;DHT22;66726;52.388;9.986;2023-07-29T07:11:18;19.30;99.90
77582;DHT22;66726;52.388;9.986;2023-07-29T07:13:50;19.40;99.90
77582;DHT22;66726;52.388;9.986;2023-07-29T07:16:23;19.40;99.90
77582;DHT22;66726;52.388;9.986;2023-07-29T07:18:58;19.50;99.90
77582;DHT22;66726;52.388;9.986;2023-07-29T07:21:30;19.50;99.90
77582;DHT22;66726;52.388;9.986;2023-07-29T07:24:02;19.40;99.90
77582;DHT22;66726;52.388;9.986;2023-07-29T07:26:34;19.40;99.90
77582;DHT22;66726;52.388;9.986;2023-07-29T07:29:07;19.50;99.90
77582;DHT22;66726;52.388;9.986;2023-07-29T07:31:40;19.50;99.90
77582;DHT22;66726;52.388;9.986;2023-07-29T07:34:19;19.50;99.90
77582;DHT22;66726;52.388;9.986;2023-07-29T07:36:51;19.50;99.90
77582;DHT22;66726;52.388;9.986;2023-07-29T07:39:24;19.50;99.90
77582;DHT22;66726;52.388;9.986;2023-07-29T07:41:56;19.60;99.90
77582;DHT22;66726;52.388;9.986;2023-07-29T07:44:28;19.60;99.90
77582;DHT22;66726;52.388;9.986;2023-07-29T07:47:01;19.60;99.90
77582;DHT22;66726;52.388;9.986;2023-07-29T07:49:33;19.60;99.90
77582;DHT22;66726;52.388;9.986;2023-07-29T07:52:06;19.60;99.90
77582;DHT22;66726;52.388;9.986;2023-07-29T07:54:38;19.60;99.90
77582;DHT22;66726;52.388;9.986;2023-07-29T07:57:10;19.60;99.90
77582;DHT22;66726;52.388;9.986;2023-07-29T07:59:42;19.60;99.90
77582;DHT22;66726;52.388;9.986;2023-07-29T08:02:15;19.60;99.90
77582;DHT22;66726;52.388;9.986;2023-07-29T08:04:47;19.70;99.90
77582;DHT22;66726;52.388;9.986;2023-07-29T08:07:19;19.70;99.90
77582;DHT22;66726;52.388;9.986;2023-07-29T08:09:52;19.80;99.90
77582;DHT22;66726;52.388;9.986;2023-07-29T08:12:24;19.80;99.90
77582;DHT22;66726;52.388;9.986;2023-07-29T08:14:57;19.80;99.90
77582;DHT22;66726;52.388;9.986;2023-07-29T08:17:30;19.90;99.90
77582;DHT22;66726;52.388;9.986;2023-07-29T08:20:02;19.90;99.90
77582;DHT22;66726;52.388;9.986;2023-07-29T08:22:35;20.00;99.90
77582;DHT22;66726;52.388;9.986;2023-07-29T08:25:08;20.00;99.90
77582;DHT22;66726;52.388;9.986;2023-07-29T08:27:40;20.00;99.90
77582;DHT22;66726;52.388;9.986;2023-07-29T08:30:13;20.10;99.90
77582;DHT22;66726;52.388;9.986;2023-07-29T08:32:47;20.20;99.90
77582;DHT22;66726;52.388;9.986;2023-07-29T08:35:19;20.20;99.90
77582;DHT22;66726;52.388;9.986;2023-07-29T08:37:51;20.30;99.90
77582;DHT22;66726;52.388;9.986;2023-07-29T08:40:27;20.40;99.90
77582;DHT22;66726;52.388;9.986;2023-07-29T08:43:04;20.40;99.90
77582;DHT22;66726;52.388;9.986;2023-07-29T08:45:38;20.40;99.90
77582;DHT22;66726;52.388;9.986;2023-07-29T08:48:15;20.40;99.90
77582;DHT22;66726;52.388;9.986;2023-07-29T08:50:54;20.50;99.90
77582;DHT22;66726;52.388;9.986;2023-07-29T08:53:28;20.50;99.90
77582;DHT22;66726;52.388;9.986;2023-07-29T08:56:00;20.50;99.90
77582;DHT22;66726;52.388;9.986;2023-07-29T08:58:33;20.50;99.90
77582;DHT22;66726;52.388;9.986;2023-07-29T09:01:09;20.50;99.90
77582;DHT22;66726;52.388;9.986;2023-07-29T09:03:42;20.50;99.90
77582;DHT22;66726;52.388;9.986;2023-07-29T09:06:15;20.50;99.90
77582;DHT22;66726;52.388;9.986;2023-07-29T09:08:51;20.50;99.90
77582;DHT22;66726;52.388;9.986;2023-07-29T09:11:25;20.50;99.90
77582;DHT22;66726;52.388;9.986;2023-07-29T09:13:57;20.50;99.90
77582;DHT22;66726;52.388;9.986;2023-07-29T09:16:29;20.50;99.90
77582;DHT22;66726;52.388;9.986;2023-07-29T09:19:04;20.50;99.90
77582;DHT22;66726;52.388;9.986;2023-07-29T09:21:40;20.50;99.90
77582;DHT22;66726;52.388;9.986;2023-07-29T09:24:18;20.40;99.90
77582;DHT22;66726;52.388;9.986;2023-07-29T09:26:52;20.50;99.90
77582;DHT22;66726;52.388;9.986;2023-07-29T09:29:29;20.40;99.90
77582;DHT22;66726;52.388;9.986;2023-07-29T09:32:22;20.50;99.90
77582;DHT22;66726;52.388;9.986;2023-07-29T09:34:56;20.50;99.90
77582;DHT22;66726;52.388;9.986;2023-07-29T09:37:28;20.50;99.90
77582;DHT22;66726;52.388;9.986;2023-07-29T09:40:01;20.50;99.90
77582;DHT22;66726;52.388;9.986;2023-07-29T09:42:33;20.60;99.90
77582;DHT22;66726;52.388;9.986;2023-07-29T09:45:04;20.60;99.90
77582;DHT22;66726;52.388;9.986;2023-07-29T09:47:37;20.70;99.90
77582;DHT22;66726;52.388;9.986;2023-07-29T09:50:12;20.80;99.90
77582;DHT22;66726;52.388;9.986;2023-07-29T09:52:45;20.90;99.90
77582;DHT22;66726;52.388;9.986;2023-07-29T09:55:20;21.00;99.90
77582;DHT22;66726;52.388;9.986;2023-07-29T09:57:54;21.00;99.90
77582;DHT22;66726;52.388;9.986;2023-07-29T10:00:29;21.10;99.90
77582;DHT22;66726;52.388;9.986;2023-07-29T10:03:02;21.10;99.90
77582;DHT22;66726;52.388;9.986;2023-07-29T10:05:37;21.20;99.90
77582;DHT22;66726;52.388;9.986;2023-07-29T10:08:13;21.20;99.90
77582;DHT22;66726;52.388;9.986;2023-07-29T10:10:46;21.30;99.90
77582;DHT22;66726;52.388;9.986;2023-07-29T10:13:19;21.30;99.90
77582;DHT22;66726;52.388;9.986;2023-07-29T10:15:52;21.40;99.90
77582;DHT22;66726;52.388;9.986;2023-07-29T10:18:25;21.30;99.90
77582;DHT22;66726;52.388;9.986;2023-07-29T10:21:01;21.30;99.90
77582;DHT22;66726;52.388;9.986;2023-07-29T10:23:37;21.10;99.90
77582;DHT22;66726;52.388;9.986;2023-07-29T10:26:12;21.10;99.90
77582;DHT22;66726;52.388;9.986;2023-07-29T10:28:49;21.10;99.90
77582;DHT22;66726;52.388;9.986;2023-07-29T10:31:28;21.10;99.90
77582;DHT22;66726;52.388;9.986;2023-07-29T10:34:02;21.10;99.90
77582;DHT22;66726;52.388;9.986;2023-07-29T10:36:37;21.20;99.90
77582;DHT22;66726;52.388;9.986;2023-07-29T10:39:09;21.40;99.90
77582;DHT22;66726;52.388;9.986;2023-07-29T10:41:59;21.50;99.90
77582;DHT22;66726;52.388;9.986;2023-07-29T10:44:51;21.90;99.90
77582;DHT22;66726;52.388;9.986;2023-07-29T10:47:25;22.10;99.90
77582;DHT22;66726;52.388;9.986;2023-07-29T10:49:59;22.30;99.90
77582;DHT22;66726;52.388;9.986;2023-07-29T10:52:41;22.40;99.90
77582;DHT22;66726;52.388;9.986;2023-07-29T10:55:29;22.50;99.90
77582;DHT22;66726;52.388;9.986;2023-07-29T10:58:16;22.60;99.90
77582;DHT22;66726;52.388;9.986;2023-07-29T11:00:48;22.20;99.90
77582;DHT22;66726;52.388;9.986;2023-07-29T11:03:21;22.60;99.90
77582;DHT22;66726;52.388;9.986;2023-07-29T11:05:57;22.70;99.90
77582;DHT22;66726;52.388;9.986;2023-07-29T11:08:36;22.80;99.90
77582;DHT22;66726;52.388;9.986;2023-07-29T11:11:11;22.90;99.90
77582;DHT22;66726;52.388;9.986;2023-07-29T11:13:43;22.80;99.40
77582;DHT22;66726;52.388;9.986;2023-07-29T11:16:18;22.90;99.30
77582;DHT22;66726;52.388;9.986;2023-07-29T11:18:51;23.00;99.00
77582;DHT22;66726;52.388;9.986;2023-07-29T11:21:24;23.20;99.70
77582;DHT22;66726;52.388;9.986;2023-07-29T11:23:58;23.40;98.20
77582;DHT22;66726;52.388;9.986;2023-07-29T11:26:30;23.50;97.30
77582;DHT22;66726;52.388;9.986;2023-07-29T11:29:06;23.50;96.00
77582;DHT22;66726;52.388;9.986;2023-07-29T11:31:42;23.60;97.00
77582;DHT22;66726;52.388;9.986;2023-07-29T11:34:14;23.80;96.80
77582;DHT22;66726;52.388;9.986;2023-07-29T11:36:49;23.80;95.20
77582;DHT22;66726;52.388;9.986;2023-07-29T11:39:22;23.80;96.20
77582;DHT22;66726;52.388;9.986;2023-07-29T11:41:54;24.10;94.80
77582;DHT22;66726;52.388;9.986;2023-07-29T11:44:26;24.10;95.30
77582;DHT22;66726;52.388;9.986;2023-07-29T11:46:58;24.00;97.20
77582;DHT22;66726;52.388;9.986;2023-07-29T11:49:31;23.80;97.90
77582;DHT22;66726;52.388;9.986;2023-07-29T11:52:06;23.70;98.80
77582;DHT22;66726;52.388;9.986;2023-07-29T11:54:40;23.60;98.40
77582;DHT22;66726;52.388;9.986;2023-07-29T11:57:13;23.50;98.10
77582;DHT22;66726;52.388;9.986;2023-07-29T11:59:45;23.60;97.80
77582;DHT22;66726;52.388;9.986;2023-07-29T12:02:23;23.60;97.50
77582;DHT22;66726;52.388;9.986;2023-07-29T12:04:55;23.50;97.20
77582;DHT22;66726;52.388;9.986;2023-07-29T12:07:29;23.40;95.90
77582;DHT22;66726;52.388;9.986;2023-07-29T12:10:03;23.40;94.70
77582;DHT22;66726;52.388;9.986;2023-07-29T12:12:40;23.40;94.10
77582;DHT22;66726;52.388;9.986;2023-07-29T12:15:14;23.40;93.30
77582;DHT22;66726;52.388;9.986;2023-07-29T12:17:57;23.60;92.70
77582;DHT22;66726;52.388;9.986;2023-07-29T12:20:31;23.50;91.50
77582;DHT22;66726;52.388;9.986;2023-07-29T12:23:03;23.50;91.60
77582;DHT22;66726;52.388;9.986;2023-07-29T12:25:37;23.50;91.60
77582;DHT22;66726;52.388;9.986;2023-07-29T12:28:09;23.50;91.10
77582;DHT22;66726;52.388;9.986;2023-07-29T12:30:43;23.60;92.10
77582;DHT22;66726;52.388;9.986;2023-07-29T12:33:31;23.70;92.10
77582;DHT22;66726;52.388;9.986;2023-07-29T12:36:05;23.90;91.50
77582;DHT22;66726;52.388;9.986;2023-07-29T12:38:39;23.90;91.70
77582;DHT22;66726;52.388;9.986;2023-07-29T12:41:13;24.00;91.80
77582;DHT22;66726;52.388;9.986;2023-07-29T12:43:45;24.00;91.70
77582;DHT22;66726;52.388;9.986;2023-07-29T12:46:17;24.00;91.60
77582;DHT22;66726;52.388;9.986;2023-07-29T12:48:49;24.20;91.40
77582;DHT22;66726;52.388;9.986;2023-07-29T12:51:21;24.30;91.20
77582;DHT22;66726;52.388;9.986;2023-07-29T12:53:53;24.50;88.90
77582;DHT22;66726;52.388;9.986;2023-07-29T12:56:26;24.20;87.80
77582;DHT22;66726;52.388;9.986;2023-07-29T12:58:59;24.40;87.10
77582;DHT22;66726;52.388;9.986;2023-07-29T13:01:32;24.60;87.50
77582;DHT22;66726;52.388;9.986;2023-07-29T13:04:04;24.70;86.10
77582;DHT22;66726;52.388;9.986;2023-07-29T13:06:35;24.70;86.20
77582;DHT22;66726;52.388;9.986;2023-07-29T13:09:08;24.40;86.80
77582;DHT22;66726;52.388;9.986;2023-07-29T13:11:41;24.40;87.00
77582;DHT22;66726;52.388;9.986;2023-07-29T13:14:13;24.20;90.00
77582;DHT22;66726;52.388;9.986;2023-07-29T13:16:45;24.10;90.30
77582;DHT22;66726;52.388;9.986;2023-07-29T13:19:17;24.10;91.10
77582;DHT22;66726;52.388;9.986;2023-07-29T13:21:49;24.10;91.10
77582;DHT22;66726;52.388;9.986;2023-07-29T13:24:21;24.30;90.60
77582;DHT22;66726;52.388;9.986;2023-07-29T13:26:54;24.30;89.50
77582;DHT22;66726;52.388;9.986;2023-07-29T13:29:26;24.10;90.50
77582;DHT22;66726;52.388;9.986;2023-07-29T13:31:58;24.30;89.30
77582;DHT22;66726;52.388;9.986;2023-07-29T13:34:30;24.60;89.40
77582;DHT22;66726;52.388;9.986;2023-07-29T13:37:03;24.50;89.00
77582;DHT22;66726;52.388;9.986;2023-07-29T13:39:35;24.70;90.60
77582;DHT22;66726;52.388;9.986;2023-07-29T13:42:09;24.70;87.20
77582;DHT22;66726;52.388;9.986;2023-07-29T13:44:40;24.90;85.60
77582;DHT22;66726;52.388;9.986;2023-07-29T13:47:12;25.00;85.20
77582;DHT22;66726;52.388;9.986;2023-07-29T13:49:44;25.00;83.00
77582;DHT22;66726;52.388;9.986;2023-07-29T13:52:16;25.10;84.00
77582;DHT22;66726;52.388;9.986;2023-07-29T13:54:48;24.80;83.30
77582;DHT22;66726;52.388;9.986;2023-07-29T13:57:22;24.60;84.40
77582;DHT22;66726;52.388;9.986;2023-07-29T13:59:54;24.60;86.70
77582;DHT22;66726;52.388;9.986;2023-07-29T14:02:26;24.60;85.70
77582;DHT22;66726;52.388;9.986;2023-07-29T14:04:59;24.60;83.70
77582;DHT22;66726;52.388;9.986;2023-07-29T14:07:31;24.70;84.40
77582;DHT22;66726;52.388;9.986;2023-07-29T14:10:03;24.90;82.80
77582;DHT22;66726;52.388;9.986;2023-07-29T14:12:37;24.80;83.70
77582;DHT22;66726;52.388;9.986;2023-07-29T14:15:10;24.70;80.90
77582;DHT22;66726;52.388;9.986;2023-07-29T14:17:43;24.60;82.40
77582;DHT22;66726;52.388;9.986;2023-07-29T14:20:15;24.60;81.50
77582;DHT22;66726;52.388;9.986;2023-07-29T14:22:50;24.50;83.00
77582;DHT22;66726;52.388;9.986;2023-07-29T14:25:22;24.50;84.00
77582;DHT22;66726;52.388;9.986;2023-07-29T14:27:55;24.60;83.40
77582;DHT22;66726;52.388;9.986;2023-07-29T14:30:27;24.80;82.60
77582;DHT22;66726;52.388;9.986;2023-07-29T14:32:59;25.10;82.10
77582;DHT22;66726;52.388;9.986;2023-07-29T14:35:31;25.30;81.30
77582;DHT22;66726;52.388;9.986;2023-07-29T14:38:02;25.10;79.30
77582;DHT22;66726;52.388;9.986;2023-07-29T14:40:34;25.10;79.40
77582;DHT22;66726;52.388;9.986;2023-07-29T14:43:07;25.20;79.80
77582;DHT22;66726;52.388;9.986;2023-07-29T14:45:39;25.30;81.60
77582;DHT22;66726;52.388;9.986;2023-07-29T14:48:11;25.30;80.20
77582;DHT22;66726;52.388;9.986;2023-07-29T14:50:43;25.40;82.90
77582;DHT22;66726;52.388;9.986;2023-07-29T14:53:15;25.50;79.30
77582;DHT22;66726;52.388;9.986;2023-07-29T14:55:47;25.70;79.30
77582;DHT22;66726;52.388;9.986;2023-07-29T14:58:20;25.50;78.80
77582;DHT22;66726;52.388;9.986;2023-07-29T15:00:54;25.40;79.30
77582;DHT22;66726;52.388;9.986;2023-07-29T15:03:26;25.30;79.70
77582;DHT22;66726;52.388;9.986;2023-07-29T15:05:58;25.30;81.10
77582;DHT22;66726;52.388;9.986;2023-07-29T15:08:31;25.60;81.20
77582;DHT22;66726;52.388;9.986;2023-07-29T15:11:03;25.60;82.20
77582;DHT22;66726;52.388;9.986;2023-07-29T15:13:36;25.70;81.80
77582;DHT22;66726;52.388;9.986;2023-07-29T15:16:10;25.80;81.90
77582;DHT22;66726;52.388;9.986;2023-07-29T15:18:42;26.00;80.30
77582;DHT22;66726;52.388;9.986;2023-07-29T15:21:14;25.90;77.90
77582;DHT22;66726;52.388;9.986;2023-07-29T15:23:46;25.90;80.20
77582;DHT22;66726;52.388;9.986;2023-07-29T15:26:18;25.90;80.00
77582;DHT22;66726;52.388;9.986;2023-07-29T15:28:51;25.80;77.90
77582;DHT22;66726;52.388;9.986;2023-07-29T15:31:23;25.90;80.20
77582;DHT22;66726;52.388;9.986;2023-07-29T15:33:55;25.90;78.30
77582;DHT22;66726;52.388;9.986;2023-07-29T15:36:27;26.00;78.90
77582;DHT22;66726;52.388;9.986;2023-07-29T15:38:59;26.00;78.30
77582;DHT22;66726;52.388;9.986;2023-07-29T15:41:31;25.90;78.00
77582;DHT22;66726;52.388;9.986;2023-07-29T15:44:04;25.90;78.60
77582;DHT22;66726;52.388;9.986;2023-07-29T15:46:36;25.90;78.90
77582;DHT22;66726;52.388;9.986;2023-07-29T15:49:08;25.90;79.60
77582;DHT22;66726;52.388;9.986;2023-07-29T15:51:40;25.60;78.50
77582;DHT22;66726;52.388;9.986;2023-07-29T15:54:12;25.50;80.50
77582;DHT22;66726;52.388;9.986;2023-07-29T15:56:44;25.40;80.00
77582;DHT22;66726;52.388;9.986;2023-07-29T15:59:17;25.40;79.60
77582;DHT22;66726;52.388;9.986;2023-07-29T16:01:49;25.50;80.90
77582;DHT22;66726;52.388;9.986;2023-07-29T16:04:21;25.60;79.80
77582;DHT22;66726;52.388;9.986;2023-07-29T16:06:53;25.40;79.70